Vernon, Canada
Current Conditions -  °F | °C
As of 3:00 PM on Monday 20 Oct 2014 (Local Time) from CYLW Reporting Station
Light Rain Light Rain  
Wind Chill: 57°   Ceiling: 9200
Heat Index: 57°   Visibility: 9mi
Dew Point: 52°   Wind: 3mph
Humidity: 82%   Direction: 170°S
Pressure: 29.71"   Gusts: NA
Location:  50.27°N, 119.27°W
Report Text: CYLW 202200Z AUTO 17003KT 160V250 9SM -RA FEW044 SCT075 BKN092 OVC120 14/11 A2971 RMK TS/LTNG TEMPO UNAVBL SLP066 DENSITY ALT 1800FT
Loading
Personal Weather Stations






























Interactive Weather Map
Tropical Storm Tracking
New forecast layout! Learn more

10-Day Weather Forecast

Advertisements
Track Severe Weather on mobile